sensor_id;sensor_type;location;lat;lon;timestamp;P1;durP1;ratioP1;P2;durP2;ratioP2
51800;SDS011;37855;53.204;6.568;2023-02-13T00:00:51;25.27;;;13.98;;
51800;SDS011;37855;53.204;6.568;2023-02-13T00:03:18;22.57;;;13.23;;
51800;SDS011;37855;53.204;6.568;2023-02-13T00:05:47;21.07;;;13.10;;
51800;SDS011;37855;53.204;6.568;2023-02-13T00:08:13;23.13;;;12.75;;
51800;SDS011;37855;53.204;6.568;2023-02-13T00:10:41;21.15;;;13.23;;
51800;SDS011;37855;53.204;6.568;2023-02-13T00:13:08;24.27;;;13.27;;
51800;SDS011;37855;53.204;6.568;2023-02-13T00:15:34;21.90;;;12.70;;
51800;SDS011;37855;53.204;6.568;2023-02-13T00:18:00;20.20;;;12.32;;
51800;SDS011;37855;53.204;6.568;2023-02-13T00:20:27;20.30;;;12.47;;
51800;SDS011;37855;53.204;6.568;2023-02-13T00:22:57;22.85;;;13.07;;
51800;SDS011;37855;53.204;6.568;2023-02-13T00:25:28;20.63;;;12.38;;
51800;SDS011;37855;53.204;6.568;2023-02-13T00:27:54;20.80;;;12.48;;
51800;SDS011;37855;53.204;6.568;2023-02-13T00:30:19;22.47;;;14.13;;
51800;SDS011;37855;53.204;6.568;2023-02-13T00:32:49;23.83;;;12.75;;
51800;SDS011;37855;53.204;6.568;2023-02-13T00:35:20;22.80;;;13.10;;
51800;SDS011;37855;53.204;6.568;2023-02-13T00:37:55;22.27;;;12.43;;
51800;SDS011;37855;53.204;6.568;2023-02-13T00:40:21;23.27;;;13.77;;
51800;SDS011;37855;53.204;6.568;2023-02-13T00:42:47;23.67;;;13.30;;
51800;SDS011;37855;53.204;6.568;2023-02-13T00:45:13;20.67;;;13.07;;
51800;SDS011;37855;53.204;6.568;2023-02-13T00:47:38;22.90;;;13.67;;
51800;SDS011;37855;53.204;6.568;2023-02-13T00:50:04;25.20;;;13.70;;
51800;SDS011;37855;53.204;6.568;2023-02-13T00:52:30;22.63;;;13.25;;
51800;SDS011;37855;53.204;6.568;2023-02-13T00:54:56;21.63;;;13.35;;
51800;SDS011;37855;53.204;6.568;2023-02-13T00:57:21;24.10;;;13.33;;
51800;SDS011;37855;53.204;6.568;2023-02-13T00:59:50;22.23;;;13.02;;
51800;SDS011;37855;53.204;6.568;2023-02-13T01:02:15;23.60;;;13.47;;
51800;SDS011;37855;53.204;6.568;2023-02-13T01:04:41;21.15;;;12.82;;
51800;SDS011;37855;53.204;6.568;2023-02-13T01:07:07;22.77;;;13.30;;
51800;SDS011;37855;53.204;6.568;2023-02-13T01:09:32;22.35;;;13.40;;
51800;SDS011;37855;53.204;6.568;2023-02-13T01:11:58;20.83;;;12.53;;
51800;SDS011;37855;53.204;6.568;2023-02-13T01:14:25;23.92;;;13.18;;
51800;SDS011;37855;53.204;6.568;2023-02-13T01:16:51;21.63;;;12.97;;
51800;SDS011;37855;53.204;6.568;2023-02-13T01:19:18;24.50;;;12.80;;
51800;SDS011;37855;53.204;6.568;2023-02-13T01:29:54;21.60;;;12.80;;
51800;SDS011;37855;53.204;6.568;2023-02-13T01:32:20;21.42;;;12.23;;
51800;SDS011;37855;53.204;6.568;2023-02-13T01:34:46;24.20;;;13.23;;
51800;SDS011;37855;53.204;6.568;2023-02-13T01:37:15;24.17;;;13.40;;
51800;SDS011;37855;53.204;6.568;2023-02-13T01:40:12;23.00;;;13.00;;
51800;SDS011;37855;53.204;6.568;2023-02-13T01:43:15;24.33;;;12.88;;
51800;SDS011;37855;53.204;6.568;2023-02-13T01:46:38;24.03;;;12.87;;
51800;SDS011;37855;53.204;6.568;2023-02-13T01:51:41;21.25;;;12.77;;
51800;SDS011;37855;53.204;6.568;2023-02-13T01:54:12;21.75;;;12.43;;
51800;SDS011;37855;53.204;6.568;2023-02-13T01:57:05;24.80;;;13.00;;
51800;SDS011;37855;53.204;6.568;2023-02-13T01:59:32;27.30;;;12.93;;
51800;SDS011;37855;53.204;6.568;2023-02-13T02:02:04;22.95;;;12.65;;
51800;SDS011;37855;53.204;6.568;2023-02-13T02:04:31;24.23;;;13.15;;
51800;SDS011;37855;53.204;6.568;2023-02-13T02:07:07;25.73;;;13.63;;
51800;SDS011;37855;53.204;6.568;2023-02-13T02:09:41;24.27;;;13.10;;
51800;SDS011;37855;53.204;6.568;2023-02-13T02:14:52;23.02;;;12.32;;
51800;SDS011;37855;53.204;6.568;2023-02-13T02:17:20;22.88;;;13.20;;
51800;SDS011;37855;53.204;6.568;2023-02-13T02:34:02;25.15;;;13.00;;
51800;SDS011;37855;53.204;6.568;2023-02-13T02:39:25;25.83;;;13.18;;
51800;SDS011;37855;53.204;6.568;2023-02-13T02:44:59;23.30;;;13.20;;
51800;SDS011;37855;53.204;6.568;2023-02-13T02:53:12;23.38;;;12.93;;
51800;SDS011;37855;53.204;6.568;2023-02-13T02:56:07;22.42;;;12.88;;
51800;SDS011;37855;53.204;6.568;2023-02-13T02:58:52;25.38;;;13.48;;
51800;SDS011;37855;53.204;6.568;2023-02-13T03:01:44;23.73;;;12.55;;
51800;SDS011;37855;53.204;6.568;2023-02-13T03:04:32;24.87;;;12.97;;
51800;SDS011;37855;53.204;6.568;2023-02-13T03:07:22;23.15;;;12.60;;
51800;SDS011;37855;53.204;6.568;2023-02-13T03:09:52;23.77;;;12.85;;
51800;SDS011;37855;53.204;6.568;2023-02-13T03:12:50;22.30;;;12.65;;
51800;SDS011;37855;53.204;6.568;2023-02-13T03:15:43;23.42;;;12.35;;
51800;SDS011;37855;53.204;6.568;2023-02-13T03:18:41;21.90;;;12.63;;
51800;SDS011;37855;53.204;6.568;2023-02-13T03:30:52;22.30;;;12.10;;
51800;SDS011;37855;53.204;6.568;2023-02-13T03:33:53;23.57;;;11.90;;
51800;SDS011;37855;53.204;6.568;2023-02-13T03:42:19;21.95;;;12.13;;
51800;SDS011;37855;53.204;6.568;2023-02-13T03:45:07;22.73;;;12.93;;
51800;SDS011;37855;53.204;6.568;2023-02-13T03:47:56;23.00;;;12.47;;
51800;SDS011;37855;53.204;6.568;2023-02-13T03:50:25;26.25;;;13.05;;
51800;SDS011;37855;53.204;6.568;2023-02-13T03:52:54;23.60;;;12.32;;
51800;SDS011;37855;53.204;6.568;2023-02-13T03:55:30;24.83;;;12.43;;
51800;SDS011;37855;53.204;6.568;2023-02-13T03:58:27;22.70;;;12.95;;
51800;SDS011;37855;53.204;6.568;2023-02-13T04:01:16;30.40;;;12.33;;
51800;SDS011;37855;53.204;6.568;2023-02-13T04:06:41;23.90;;;12.25;;
51800;SDS011;37855;53.204;6.568;2023-02-13T04:09:35;23.10;;;12.65;;
51800;SDS011;37855;53.204;6.568;2023-02-13T04:12:18;27.80;;;13.07;;
51800;SDS011;37855;53.204;6.568;2023-02-13T04:15:01;25.50;;;13.20;;
51800;SDS011;37855;53.204;6.568;2023-02-13T04:17:34;24.15;;;12.45;;
51800;SDS011;37855;53.204;6.568;2023-02-13T04:20:04;23.88;;;13.07;;
51800;SDS011;37855;53.204;6.568;2023-02-13T04:22:31;28.58;;;12.70;;
51800;SDS011;37855;53.204;6.568;2023-02-13T04:24:57;25.13;;;12.63;;
51800;SDS011;37855;53.204;6.568;2023-02-13T04:27:24;23.37;;;12.63;;
51800;SDS011;37855;53.204;6.568;2023-02-13T04:29:52;25.00;;;13.52;;
51800;SDS011;37855;53.204;6.568;2023-02-13T04:32:17;23.70;;;12.97;;
51800;SDS011;37855;53.204;6.568;2023-02-13T04:34:43;24.02;;;13.15;;
51800;SDS011;37855;53.204;6.568;2023-02-13T04:37:09;26.47;;;13.30;;
51800;SDS011;37855;53.204;6.568;2023-02-13T04:39:34;23.38;;;12.80;;
51800;SDS011;37855;53.204;6.568;2023-02-13T04:42:03;24.30;;;13.35;;
51800;SDS011;37855;53.204;6.568;2023-02-13T04:44:32;23.17;;;12.67;;
51800;SDS011;37855;53.204;6.568;2023-02-13T04:46:57;25.00;;;12.65;;
51800;SDS011;37855;53.204;6.568;2023-02-13T04:49:23;22.03;;;12.67;;
51800;SDS011;37855;53.204;6.568;2023-02-13T04:51:48;24.48;;;12.73;;
51800;SDS011;37855;53.204;6.568;2023-02-13T04:54:14;26.00;;;13.23;;
51800;SDS011;37855;53.204;6.568;2023-02-13T04:56:42;26.10;;;12.60;;
51800;SDS011;37855;53.204;6.568;2023-02-13T04:59:08;24.65;;;13.35;;
51800;SDS011;37855;53.204;6.568;2023-02-13T05:01:33;26.50;;;13.97;;
51800;SDS011;37855;53.204;6.568;2023-02-13T05:03:59;25.47;;;13.27;;
51800;SDS011;37855;53.204;6.568;2023-02-13T05:06:25;28.30;;;13.80;;
51800;SDS011;37855;53.204;6.568;2023-02-13T05:08:52;22.20;;;12.52;;
51800;SDS011;37855;53.204;6.568;2023-02-13T05:11:20;25.37;;;13.87;;
51800;SDS011;37855;53.204;6.568;2023-02-13T05:13:46;21.38;;;12.70;;
51800;SDS011;37855;53.204;6.568;2023-02-13T05:16:11;23.20;;;13.30;;
51800;SDS011;37855;53.204;6.568;2023-02-13T05:18:37;23.55;;;13.10;;
51800;SDS011;37855;53.204;6.568;2023-02-13T05:21:02;24.73;;;13.47;;
51800;SDS011;37855;53.204;6.568;2023-02-13T05:23:48;21.60;;;12.10;;
51800;SDS011;37855;53.204;6.568;2023-02-13T05:26:16;25.90;;;12.80;;
51800;SDS011;37855;53.204;6.568;2023-02-13T05:28:46;25.03;;;12.40;;
51800;SDS011;37855;53.204;6.568;2023-02-13T05:31:38;24.92;;;13.25;;
51800;SDS011;37855;53.204;6.568;2023-02-13T05:34:03;24.27;;;13.07;;
51800;SDS011;37855;53.204;6.568;2023-02-13T05:36:29;24.63;;;13.10;;
51800;SDS011;37855;53.204;6.568;2023-02-13T05:38:55;26.92;;;13.13;;
51800;SDS011;37855;53.204;6.568;2023-02-13T05:41:20;22.97;;;13.07;;
51800;SDS011;37855;53.204;6.568;2023-02-13T05:43:46;25.10;;;13.13;;
51800;SDS011;37855;53.204;6.568;2023-02-13T05:46:13;26.20;;;13.20;;
51800;SDS011;37855;53.204;6.568;2023-02-13T05:48:39;24.08;;;13.45;;
51800;SDS011;37855;53.204;6.568;2023-02-13T05:51:04;27.87;;;13.90;;
51800;SDS011;37855;53.204;6.568;2023-02-13T05:53:30;25.77;;;13.57;;
51800;SDS011;37855;53.204;6.568;2023-02-13T05:56:00;24.60;;;13.30;;
51800;SDS011;37855;53.204;6.568;2023-02-13T05:58:27;26.70;;;13.18;;
51800;SDS011;37855;53.204;6.568;2023-02-13T06:00:54;24.17;;;12.87;;
51800;SDS011;37855;53.204;6.568;2023-02-13T06:03:22;25.08;;;13.00;;
51800;SDS011;37855;53.204;6.568;2023-02-13T06:05:52;26.33;;;13.55;;
51800;SDS011;37855;53.204;6.568;2023-02-13T06:08:18;24.98;;;14.10;;
51800;SDS011;37855;53.204;6.568;2023-02-13T06:10:46;26.52;;;14.73;;
51800;SDS011;37855;53.204;6.568;2023-02-13T06:13:13;27.00;;;14.27;;
51800;SDS011;37855;53.204;6.568;2023-02-13T06:15:39;26.42;;;14.25;;
51800;SDS011;37855;53.204;6.568;2023-02-13T06:18:05;25.52;;;12.88;;
51800;SDS011;37855;53.204;6.568;2023-02-13T06:20:32;27.80;;;14.07;;
51800;SDS011;37855;53.204;6.568;2023-02-13T06:22:58;30.43;;;14.90;;
51800;SDS011;37855;53.204;6.568;2023-02-13T06:25:24;26.48;;;13.48;;
51800;SDS011;37855;53.204;6.568;2023-02-13T06:27:50;24.17;;;13.80;;
51800;SDS011;37855;53.204;6.568;2023-02-13T06:30:16;25.60;;;13.60;;
51800;SDS011;37855;53.204;6.568;2023-02-13T06:32:42;25.23;;;13.88;;
51800;SDS011;37855;53.204;6.568;2023-02-13T06:35:10;25.30;;;13.98;;
51800;SDS011;37855;53.204;6.568;2023-02-13T06:37:36;25.63;;;13.50;;
51800;SDS011;37855;53.204;6.568;2023-02-13T06:40:03;26.60;;;13.32;;
51800;SDS011;37855;53.204;6.568;2023-02-13T06:42:30;24.52;;;13.40;;
51800;SDS011;37855;53.204;6.568;2023-02-13T06:45:05;30.23;;;13.60;;
51800;SDS011;37855;53.204;6.568;2023-02-13T06:47:34;30.08;;;13.63;;
51800;SDS011;37855;53.204;6.568;2023-02-13T06:50:01;26.63;;;13.20;;
51800;SDS011;37855;53.204;6.568;2023-02-13T06:52:31;24.20;;;13.63;;
51800;SDS011;37855;53.204;6.568;2023-02-13T06:54:56;25.27;;;13.63;;
51800;SDS011;37855;53.204;6.568;2023-02-13T06:57:22;27.43;;;13.43;;
51800;SDS011;37855;53.204;6.568;2023-02-13T06:59:48;28.20;;;13.68;;
51800;SDS011;37855;53.204;6.568;2023-02-13T07:02:14;29.42;;;14.15;;
51800;SDS011;37855;53.204;6.568;2023-02-13T07:04:40;25.33;;;13.67;;
51800;SDS011;37855;53.204;6.568;2023-02-13T07:07:05;28.30;;;13.85;;
51800;SDS011;37855;53.204;6.568;2023-02-13T07:09:31;24.23;;;12.80;;
51800;SDS011;37855;53.204;6.568;2023-02-13T07:11:57;25.58;;;13.02;;
51800;SDS011;37855;53.204;6.568;2023-02-13T07:14:22;27.33;;;13.77;;
51800;SDS011;37855;53.204;6.568;2023-02-13T07:16:48;25.35;;;14.00;;
51800;SDS011;37855;53.204;6.568;2023-02-13T07:19:14;25.57;;;13.83;;
51800;SDS011;37855;53.204;6.568;2023-02-13T07:21:39;22.83;;;12.70;;
51800;SDS011;37855;53.204;6.568;2023-02-13T07:24:05;28.00;;;13.40;;
51800;SDS011;37855;53.204;6.568;2023-02-13T07:26:31;24.35;;;12.98;;
51800;SDS011;37855;53.204;6.568;2023-02-13T07:28:57;23.77;;;13.47;;
51800;SDS011;37855;53.204;6.568;2023-02-13T07:31:22;25.88;;;12.88;;
51800;SDS011;37855;53.204;6.568;2023-02-13T07:33:48;22.90;;;13.13;;
51800;SDS011;37855;53.204;6.568;2023-02-13T07:36:15;26.05;;;13.20;;
51800;SDS011;37855;53.204;6.568;2023-02-13T07:38:42;26.35;;;13.07;;
51800;SDS011;37855;53.204;6.568;2023-02-13T07:41:09;25.03;;;12.83;;
51800;SDS011;37855;53.204;6.568;2023-02-13T07:43:35;27.52;;;13.85;;
51800;SDS011;37855;53.204;6.568;2023-02-13T07:46:03;24.67;;;12.80;;
51800;SDS011;37855;53.204;6.568;2023-02-13T07:48:29;27.27;;;12.80;;
51800;SDS011;37855;53.204;6.568;2023-02-13T07:50:59;24.90;;;13.07;;
51800;SDS011;37855;53.204;6.568;2023-02-13T07:53:26;25.08;;;13.15;;
51800;SDS011;37855;53.204;6.568;2023-02-13T07:55:52;27.50;;;13.60;;
51800;SDS011;37855;53.204;6.568;2023-02-13T07:58:19;26.13;;;12.97;;
51800;SDS011;37855;53.204;6.568;2023-02-13T08:00:45;27.98;;;13.43;;
51800;SDS011;37855;53.204;6.568;2023-02-13T08:03:14;27.25;;;13.82;;
51800;SDS011;37855;53.204;6.568;2023-02-13T08:05:41;25.10;;;13.57;;
51800;SDS011;37855;53.204;6.568;2023-02-13T08:08:06;26.83;;;12.57;;
51800;SDS011;37855;53.204;6.568;2023-02-13T08:10:35;27.00;;;13.88;;
51800;SDS011;37855;53.204;6.568;2023-02-13T08:13:19;25.50;;;13.32;;
51800;SDS011;37855;53.204;6.568;2023-02-13T08:15:45;24.93;;;12.57;;
51800;SDS011;37855;53.204;6.568;2023-02-13T08:18:12;25.38;;;13.52;;
51800;SDS011;37855;53.204;6.568;2023-02-13T08:20:38;25.73;;;12.80;;
51800;SDS011;37855;53.204;6.568;2023-02-13T08:23:05;24.70;;;14.32;;
51800;SDS011;37855;53.204;6.568;2023-02-13T08:25:32;26.75;;;13.68;;
51800;SDS011;37855;53.204;6.568;2023-02-13T08:27:58;25.05;;;11.98;;
51800;SDS011;37855;53.204;6.568;2023-02-13T08:30:24;24.57;;;12.53;;
51800;SDS011;37855;53.204;6.568;2023-02-13T08:32:50;26.77;;;13.50;;
51800;SDS011;37855;53.204;6.568;2023-02-13T08:35:21;21.92;;;11.27;;
51800;SDS011;37855;53.204;6.568;2023-02-13T08:37:51;27.45;;;13.25;;
51800;SDS011;37855;53.204;6.568;2023-02-13T08:40:17;23.97;;;12.37;;
51800;SDS011;37855;53.204;6.568;2023-02-13T08:43:09;26.48;;;13.05;;
51800;SDS011;37855;53.204;6.568;2023-02-13T08:45:35;25.23;;;13.15;;
51800;SDS011;37855;53.204;6.568;2023-02-13T08:48:01;22.85;;;11.82;;
51800;SDS011;37855;53.204;6.568;2023-02-13T08:50:31;24.83;;;12.48;;
51800;SDS011;37855;53.204;6.568;2023-02-13T08:52:57;26.73;;;12.00;;
51800;SDS011;37855;53.204;6.568;2023-02-13T08:55:23;27.60;;;13.13;;
51800;SDS011;37855;53.204;6.568;2023-02-13T08:57:50;27.60;;;12.88;;
51800;SDS011;37855;53.204;6.568;2023-02-13T09:00:15;22.97;;;11.77;;
51800;SDS011;37855;53.204;6.568;2023-02-13T09:02:41;24.23;;;12.40;;
51800;SDS011;37855;53.204;6.568;2023-02-13T09:05:07;23.87;;;12.00;;
51800;SDS011;37855;53.204;6.568;2023-02-13T09:07:32;25.23;;;12.27;;
51800;SDS011;37855;53.204;6.568;2023-02-13T09:10:01;25.33;;;12.63;;
51800;SDS011;37855;53.204;6.568;2023-02-13T09:12:26;25.75;;;13.50;;
51800;SDS011;37855;53.204;6.568;2023-02-13T09:14:53;25.40;;;13.30;;
51800;SDS011;37855;53.204;6.568;2023-02-13T09:17:22;21.83;;;11.85;;
51800;SDS011;37855;53.204;6.568;2023-02-13T09:22:23;27.70;;;14.10;;
51800;SDS011;37855;53.204;6.568;2023-02-13T09:24:49;26.00;;;13.47;;
51800;SDS011;37855;53.204;6.568;2023-02-13T09:27:15;28.95;;;14.13;;
51800;SDS011;37855;53.204;6.568;2023-02-13T09:29:59;25.80;;;12.50;;
51800;SDS011;37855;53.204;6.568;2023-02-13T09:32:25;28.50;;;13.25;;
51800;SDS011;37855;53.204;6.568;2023-02-13T09:34:51;24.17;;;12.93;;
51800;SDS011;37855;53.204;6.568;2023-02-13T09:37:17;26.23;;;12.55;;
51800;SDS011;37855;53.204;6.568;2023-02-13T09:39:43;25.65;;;13.25;;
51800;SDS011;37855;53.204;6.568;2023-02-13T09:42:25;27.27;;;13.57;;
51800;SDS011;37855;53.204;6.568;2023-02-13T09:44:56;29.10;;;13.20;;
51800;SDS011;37855;53.204;6.568;2023-02-13T09:50:13;24.70;;;13.45;;
51800;SDS011;37855;53.204;6.568;2023-02-13T09:55:48;25.63;;;12.60;;
51800;SDS011;37855;53.204;6.568;2023-02-13T09:58:32;26.13;;;12.75;;
51800;SDS011;37855;53.204;6.568;2023-02-13T10:01:16;27.65;;;13.15;;
51800;SDS011;37855;53.204;6.568;2023-02-13T10:06:53;26.67;;;13.27;;
51800;SDS011;37855;53.204;6.568;2023-02-13T10:12:30;25.00;;;13.15;;
51800;SDS011;37855;53.204;6.568;2023-02-13T10:32:06;27.27;;;13.05;;
51800;SDS011;37855;53.204;6.568;2023-02-13T10:34:40;29.13;;;14.27;;
51800;SDS011;37855;53.204;6.568;2023-02-13T10:37:19;25.23;;;12.97;;
51800;SDS011;37855;53.204;6.568;2023-02-13T10:39:49;26.45;;;12.45;;
51800;SDS011;37855;53.204;6.568;2023-02-13T10:53:17;26.92;;;11.65;;
51800;SDS011;37855;53.204;6.568;2023-02-13T10:59:11;24.20;;;12.53;;
51800;SDS011;37855;53.204;6.568;2023-02-13T11:01:48;25.88;;;13.02;;
51800;SDS011;37855;53.204;6.568;2023-02-13T11:04:25;26.05;;;12.35;;
51800;SDS011;37855;53.204;6.568;2023-02-13T11:07:01;20.63;;;10.53;;
51800;SDS011;37855;53.204;6.568;2023-02-13T11:09:32;28.37;;;12.67;;
51800;SDS011;37855;53.204;6.568;2023-02-13T11:12:21;29.48;;;14.13;;
51800;SDS011;37855;53.204;6.568;2023-02-13T11:14:57;29.73;;;13.93;;
51800;SDS011;37855;53.204;6.568;2023-02-13T11:17:29;24.80;;;12.98;;
51800;SDS011;37855;53.204;6.568;2023-02-13T11:20:04;27.67;;;13.80;;
51800;SDS011;37855;53.204;6.568;2023-02-13T11:22:46;28.20;;;13.00;;
51800;SDS011;37855;53.204;6.568;2023-02-13T11:25:17;26.05;;;14.02;;
51800;SDS011;37855;53.204;6.568;2023-02-13T11:28:14;26.15;;;12.50;;
51800;SDS011;37855;53.204;6.568;2023-02-13T11:30:42;28.17;;;13.65;;
51800;SDS011;37855;53.204;6.568;2023-02-13T11:35:48;25.95;;;13.90;;
51800;SDS011;37855;53.204;6.568;2023-02-13T11:40:42;25.55;;;14.05;;
51800;SDS011;37855;53.204;6.568;2023-02-13T11:48:33;27.50;;;14.00;;
51800;SDS011;37855;53.204;6.568;2023-02-13T11:51:07;27.40;;;13.40;;
51800;SDS011;37855;53.204;6.568;2023-02-13T11:53:38;27.27;;;13.65;;
51800;SDS011;37855;53.204;6.568;2023-02-13T11:56:12;24.20;;;12.63;;
51800;SDS011;37855;53.204;6.568;2023-02-13T11:58:39;27.20;;;14.10;;
51800;SDS011;37855;53.204;6.568;2023-02-13T12:03:55;24.42;;;12.18;;
51800;SDS011;37855;53.204;6.568;2023-02-13T12:06:22;24.52;;;12.88;;
51800;SDS011;37855;53.204;6.568;2023-02-13T12:08:50;27.97;;;13.13;;
51800;SDS011;37855;53.204;6.568;2023-02-13T12:11:23;24.83;;;13.02;;
51800;SDS011;37855;53.204;6.568;2023-02-13T12:14:26;27.63;;;12.70;;
51800;SDS011;37855;53.204;6.568;2023-02-13T12:20:04;29.07;;;12.60;;
51800;SDS011;37855;53.204;6.568;2023-02-13T13:05:31;24.15;;;12.38;;
51800;SDS011;37855;53.204;6.568;2023-02-13T13:08:36;25.25;;;12.15;;
51800;SDS011;37855;53.204;6.568;2023-02-13T13:24:37;25.47;;;13.50;;
51800;SDS011;37855;53.204;6.568;2023-02-13T13:27:16;27.63;;;13.93;;
51800;SDS011;37855;53.204;6.568;2023-02-13T13:33:20;28.63;;;13.32;;
51800;SDS011;37855;53.204;6.568;2023-02-13T14:13:44;28.00;;;14.38;;
51800;SDS011;37855;53.204;6.568;2023-02-13T14:19:05;27.00;;;13.73;;
51800;SDS011;37855;53.204;6.568;2023-02-13T14:21:47;29.88;;;14.00;;
51800;SDS011;37855;53.204;6.568;2023-02-13T14:24:16;29.65;;;15.35;;
51800;SDS011;37855;53.204;6.568;2023-02-13T14:26:56;29.92;;;14.60;;
51800;SDS011;37855;53.204;6.568;2023-02-13T14:29:25;27.77;;;13.73;;
51800;SDS011;37855;53.204;6.568;2023-02-13T14:42:37;30.92;;;15.65;;
51800;SDS011;37855;53.204;6.568;2023-02-13T14:49:01;30.83;;;15.17;;
51800;SDS011;37855;53.204;6.568;2023-02-13T14:52:26;28.65;;;15.02;;
51800;SDS011;37855;53.204;6.568;2023-02-13T14:54:45;30.73;;;15.48;;
51800;SDS011;37855;53.204;6.568;2023-02-13T14:57:17;32.28;;;15.40;;
51800;SDS011;37855;53.204;6.568;2023-02-13T14:59:54;28.33;;;15.10;;
51800;SDS011;37855;53.204;6.568;2023-02-13T15:02:34;28.33;;;15.13;;
51800;SDS011;37855;53.204;6.568;2023-02-13T15:05:09;29.35;;;16.17;;
51800;SDS011;37855;53.204;6.568;2023-02-13T15:11:30;31.73;;;16.48;;
51800;SDS011;37855;53.204;6.568;2023-02-13T15:17:02;28.53;;;14.80;;
51800;SDS011;37855;53.204;6.568;2023-02-13T15:19:30;29.38;;;15.98;;
51800;SDS011;37855;53.204;6.568;2023-02-13T15:21:59;28.08;;;15.13;;
51800;SDS011;37855;53.204;6.568;2023-02-13T15:24:50;30.13;;;15.43;;
51800;SDS011;37855;53.204;6.568;2023-02-13T15:27:29;30.40;;;15.60;;
51800;SDS011;37855;53.204;6.568;2023-02-13T15:32:55;30.20;;;15.43;;
51800;SDS011;37855;53.204;6.568;2023-02-13T15:35:40;29.08;;;15.57;;
51800;SDS011;37855;53.204;6.568;2023-02-13T15:40:56;27.73;;;15.05;;
51800;SDS011;37855;53.204;6.568;2023-02-13T15:43:33;27.20;;;15.30;;
51800;SDS011;37855;53.204;6.568;2023-02-13T15:46:05;29.08;;;15.68;;
51800;SDS011;37855;53.204;6.568;2023-02-13T15:48:58;30.17;;;15.98;;
51800;SDS011;37855;53.204;6.568;2023-02-13T15:51:31;29.58;;;15.43;;
51800;SDS011;37855;53.204;6.568;2023-02-13T15:54:06;28.65;;;15.68;;
51800;SDS011;37855;53.204;6.568;2023-02-13T15:56:49;30.60;;;15.07;;
51800;SDS011;37855;53.204;6.568;2023-02-13T15:59:17;30.42;;;15.40;;
51800;SDS011;37855;53.204;6.568;2023-02-13T16:01:43;27.88;;;14.93;;
51800;SDS011;37855;53.204;6.568;2023-02-13T16:04:14;31.13;;;16.13;;
51800;SDS011;37855;53.204;6.568;2023-02-13T16:06:43;29.55;;;15.48;;
51800;SDS011;37855;53.204;6.568;2023-02-13T16:09:30;32.73;;;15.87;;
51800;SDS011;37855;53.204;6.568;2023-02-13T16:15:12;29.10;;;14.98;;
51800;SDS011;37855;53.204;6.568;2023-02-13T16:17:42;32.08;;;15.93;;
51800;SDS011;37855;53.204;6.568;2023-02-13T16:22:41;31.47;;;14.93;;
51800;SDS011;37855;53.204;6.568;2023-02-13T16:27:45;30.52;;;16.15;;
51800;SDS011;37855;53.204;6.568;2023-02-13T16:30:34;30.07;;;15.47;;
51800;SDS011;37855;53.204;6.568;2023-02-13T16:35:37;29.90;;;15.90;;
51800;SDS011;37855;53.204;6.568;2023-02-13T16:38:19;32.38;;;16.20;;
51800;SDS011;37855;53.204;6.568;2023-02-13T16:43:52;31.03;;;16.47;;
51800;SDS011;37855;53.204;6.568;2023-02-13T16:46:27;30.48;;;15.43;;
51800;SDS011;37855;53.204;6.568;2023-02-13T16:49:40;27.55;;;14.95;;
51800;SDS011;37855;53.204;6.568;2023-02-13T16:55:17;27.00;;;14.18;;
51800;SDS011;37855;53.204;6.568;2023-02-13T17:11:09;30.27;;;15.90;;
51800;SDS011;37855;53.204;6.568;2023-02-13T17:13:44;27.90;;;15.18;;
51800;SDS011;37855;53.204;6.568;2023-02-13T17:16:12;30.35;;;15.77;;
51800;SDS011;37855;53.204;6.568;2023-02-13T17:18:38;32.23;;;16.70;;
51800;SDS011;37855;53.204;6.568;2023-02-13T17:21:04;30.90;;;15.93;;
51800;SDS011;37855;53.204;6.568;2023-02-13T17:23:30;29.00;;;15.80;;
51800;SDS011;37855;53.204;6.568;2023-02-13T17:25:55;30.23;;;15.57;;
51800;SDS011;37855;53.204;6.568;2023-02-13T17:28:23;30.02;;;16.42;;
51800;SDS011;37855;53.204;6.568;2023-02-13T17:30:51;35.50;;;17.48;;
51800;SDS011;37855;53.204;6.568;2023-02-13T17:33:25;31.23;;;17.30;;
51800;SDS011;37855;53.204;6.568;2023-02-13T17:35:56;30.63;;;15.90;;
51800;SDS011;37855;53.204;6.568;2023-02-13T17:38:46;31.40;;;17.23;;
51800;SDS011;37855;53.204;6.568;2023-02-13T17:41:13;32.15;;;15.98;;
51800;SDS011;37855;53.204;6.568;2023-02-13T17:43:39;31.33;;;16.23;;
51800;SDS011;37855;53.204;6.568;2023-02-13T17:46:06;31.50;;;16.33;;
51800;SDS011;37855;53.204;6.568;2023-02-13T17:48:32;34.22;;;17.25;;
51800;SDS011;37855;53.204;6.568;2023-02-13T17:50:58;30.67;;;16.23;;
51800;SDS011;37855;53.204;6.568;2023-02-13T17:53:25;33.10;;;16.80;;
51800;SDS011;37855;53.204;6.568;2023-02-13T17:55:53;30.42;;;17.05;;
51800;SDS011;37855;53.204;6.568;2023-02-13T17:58:20;32.42;;;17.17;;
51800;SDS011;37855;53.204;6.568;2023-02-13T18:00:46;32.40;;;16.63;;
51800;SDS011;37855;53.204;6.568;2023-02-13T18:03:22;34.27;;;16.47;;
51800;SDS011;37855;53.204;6.568;2023-02-13T18:05:50;31.53;;;16.90;;
51800;SDS011;37855;53.204;6.568;2023-02-13T18:08:16;32.38;;;16.98;;
51800;SDS011;37855;53.204;6.568;2023-02-13T18:10:54;32.55;;;17.00;;
51800;SDS011;37855;53.204;6.568;2023-02-13T18:13:23;31.00;;;16.17;;
51800;SDS011;37855;53.204;6.568;2023-02-13T18:15:48;31.38;;;16.58;;
51800;SDS011;37855;53.204;6.568;2023-02-13T18:18:14;33.07;;;16.27;;
51800;SDS011;37855;53.204;6.568;2023-02-13T18:20:40;30.48;;;16.80;;
51800;SDS011;37855;53.204;6.568;2023-02-13T18:23:07;30.77;;;16.65;;
51800;SDS011;37855;53.204;6.568;2023-02-13T18:25:33;31.50;;;16.42;;
51800;SDS011;37855;53.204;6.568;2023-02-13T18:28:01;35.58;;;17.92;;
51800;SDS011;37855;53.204;6.568;2023-02-13T18:30:28;32.23;;;16.87;;
51800;SDS011;37855;53.204;6.568;2023-02-13T18:32:54;32.30;;;16.70;;
51800;SDS011;37855;53.204;6.568;2023-02-13T18:35:22;30.48;;;16.80;;
51800;SDS011;37855;53.204;6.568;2023-02-13T18:37:51;33.83;;;16.90;;
51800;SDS011;37855;53.204;6.568;2023-02-13T18:40:18;29.60;;;15.82;;
51800;SDS011;37855;53.204;6.568;2023-02-13T18:42:48;32.55;;;17.80;;
51800;SDS011;37855;53.204;6.568;2023-02-13T18:45:14;34.72;;;18.13;;
51800;SDS011;37855;53.204;6.568;2023-02-13T18:47:41;34.00;;;17.20;;
51800;SDS011;37855;53.204;6.568;2023-02-13T18:50:07;34.28;;;16.77;;
51800;SDS011;37855;53.204;6.568;2023-02-13T18:52:33;37.40;;;20.17;;
51800;SDS011;37855;53.204;6.568;2023-02-13T18:55:00;37.33;;;19.80;;
51800;SDS011;37855;53.204;6.568;2023-02-13T18:57:25;41.42;;;21.90;;
51800;SDS011;37855;53.204;6.568;2023-02-13T18:59:51;41.50;;;23.23;;
51800;SDS011;37855;53.204;6.568;2023-02-13T19:02:17;39.83;;;23.53;;
51800;SDS011;37855;53.204;6.568;2023-02-13T19:04:44;41.50;;;24.37;;
51800;SDS011;37855;53.204;6.568;2023-02-13T19:07:13;41.57;;;24.23;;
51800;SDS011;37855;53.204;6.568;2023-02-13T19:09:42;44.63;;;25.50;;
51800;SDS011;37855;53.204;6.568;2023-02-13T19:12:10;46.80;;;28.95;;
51800;SDS011;37855;53.204;6.568;2023-02-13T19:14:36;47.85;;;30.15;;
51800;SDS011;37855;53.204;6.568;2023-02-13T19:17:04;47.90;;;28.83;;
51800;SDS011;37855;53.204;6.568;2023-02-13T19:19:35;45.38;;;27.42;;
51800;SDS011;37855;53.204;6.568;2023-02-13T19:22:02;45.00;;;26.42;;